Time;durP1;ratioP1;P1;durP2;ratioP2;P2;SDS_P1;SDS_P2;PMS_P1;PMS_P2;Temp;Humidity;BMP_temperature;BMP_pressure;BME280_temperature;BME280_humidity;BME280_pressure;Samples;Min_cycle;Max_cycle;Signal;HPM_P1;HPM_P2
2022/10/02 00:01:27;;;;;;;7.03;2.70;;;12.40;99.90;;;;;;4883315;29;20447;-86
2022/10/02 00:03:54;;;;;;;6.80;3.73;;;12.50;99.90;;;;;;4907899;28;20850;-86
2022/10/02 00:06:23;;;;;;;3.17;2.33;;;12.50;99.90;;;;;;4983373;28;20453;-86
2022/10/02 00:08:54;;;;;;;7.50;3.17;;;12.50;99.90;;;;;;5020174;28;20565;-86
2022/10/02 00:11:25;;;;;;;5.90;4.17;;;12.50;99.90;;;;;;5024038;28;20457;-84
2022/10/02 00:13:56;;;;;;;2.77;2.57;;;12.50;99.90;;;;;;5034760;28;20521;-84
2022/10/02 00:16:30;;;;;;;3.00;2.60;;;12.60;99.90;;;;;;5034100;28;20582;-85
2022/10/02 00:18:57;;;;;;;3.10;2.60;;;12.50;99.90;;;;;;5024451;28;20975;-87
2022/10/02 00:22:00;;;;;;;4.50;2.90;;;12.60;99.90;;;;;;5019242;28;20464;-87
2022/10/02 00:24:34;;;;;;;3.80;2.73;;;12.50;99.90;;;;;;5020483;28;20450;-87
2022/10/02 00:27:14;;;;;;;5.13;2.60;;;12.40;99.90;;;;;;5020434;28;20454;-85
2022/10/02 00:29:49;;;;;;;5.73;3.30;;;12.40;99.90;;;;;;5020047;28;20484;-87
2022/10/02 00:32:25;;;;;;;5.73;3.47;;;12.50;99.90;;;;;;5020372;28;20556;-87
2022/10/02 00:35:28;;;;;;;11.83;4.20;;;12.70;99.90;;;;;;5021338;28;20469;-87
2022/10/02 00:38:01;;;;;;;4.53;3.57;;;12.80;99.90;;;;;;5023925;28;20512;-85
2022/10/02 00:40:52;;;;;;;4.03;2.63;;;12.70;99.90;;;;;;5024126;28;20942;-87
2022/10/02 00:43:26;;;;;;;4.73;2.77;;;12.70;99.90;;;;;;5023518;28;20484;-87
2022/10/02 00:46:18;;;;;;;3.47;3.23;;;12.70;99.90;;;;;;5022324;28;21109;-86
2022/10/02 00:48:59;;;;;;;5.50;2.90;;;12.70;99.90;;;;;;5021994;28;20516;-87
2022/10/02 00:51:42;;;;;;;2.23;2.13;;;12.70;99.90;;;;;;5022084;28;20434;-86
2022/10/02 00:54:53;;;;;;;2.40;2.10;;;12.50;99.90;;;;;;5021431;28;20442;-84
2022/10/02 00:57:34;;;;;;;3.13;2.60;;;12.60;99.90;;;;;;4993984;28;20986;-85
2022/10/02 01:00:05;;;;;;;2.57;2.37;;;12.60;99.90;;;;;;5021485;28;20446;-85
2022/10/02 01:03:06;;;;;;;6.57;2.50;;;12.50;99.90;;;;;;5022067;28;20442;-85
2022/10/02 01:05:34;;;;;;;3.17;2.30;;;12.60;99.90;;;;;;5023309;28;20958;-86
2022/10/02 01:08:02;;;;;;;4.60;2.40;;;12.50;99.90;;;;;;5022784;28;20474;-84
2022/10/02 01:10:29;;;;;;;1.93;1.83;;;12.50;99.90;;;;;;5022906;28;20540;-87
2022/10/02 01:12:57;;;;;;;3.57;2.10;;;12.40;99.90;;;;;;5023331;28;20453;-84
2022/10/02 01:15:30;;;;;;;2.83;2.10;;;12.40;99.90;;;;;;5020710;28;20450;-85
2022/10/02 01:17:57;;;;;;;6.17;2.60;;;12.60;99.90;;;;;;5020143;28;20535;-87
2022/10/02 01:20:29;;;;;;;4.13;2.70;;;12.50;99.90;;;;;;5018496;28;20456;-88
2022/10/02 01:23:05;;;;;;;2.53;2.20;;;12.50;99.90;;;;;;5020504;28;20460;-84
2022/10/02 01:25:33;;;;;;;2.57;2.37;;;12.50;99.90;;;;;;5024172;28;20536;-87
2022/10/02 01:28:01;;;;;;;4.80;2.93;;;12.60;99.90;;;;;;5030068;28;20469;-85
2022/10/02 01:30:31;;;;;;;2.60;2.40;;;12.60;99.90;;;;;;5040576;28;20547;-85
2022/10/02 01:33:00;;;;;;;4.37;2.03;;;12.60;99.90;;;;;;5040570;28;20463;-85
2022/10/02 01:35:30;;;;;;;3.07;2.80;;;12.70;99.90;;;;;;5033437;28;20454;-84
2022/10/02 01:37:58;;;;;;;3.10;2.63;;;12.80;99.90;;;;;;5019971;28;21025;-85
2022/10/02 01:40:27;;;;;;;2.50;2.10;;;12.70;99.90;;;;;;5024864;28;20908;-84
2022/10/02 01:42:59;;;;;;;4.40;3.23;;;12.70;99.90;;;;;;5039294;28;20466;-88
2022/10/02 01:45:41;;;;;;;4.00;2.37;;;12.80;99.90;;;;;;5038055;28;20449;-85
2022/10/02 01:48:13;;;;;;;3.93;2.40;;;12.80;99.90;;;;;;5020677;28;20465;-85
2022/10/02 01:50:49;;;;;;;4.00;2.07;;;12.80;99.90;;;;;;5025211;28;20451;-88
2022/10/02 01:53:21;;;;;;;2.43;2.13;;;12.80;99.90;;;;;;5039448;28;20452;-85
2022/10/02 01:56:00;;;;;;;2.90;2.30;;;12.80;99.90;;;;;;5031986;28;20457;-85
2022/10/02 01:58:39;;;;;;;2.97;2.17;;;12.90;99.90;;;;;;5019136;28;21053;-85
2022/10/02 02:01:16;;;;;;;4.60;2.67;;;12.90;99.90;;;;;;5029108;28;20456;-85
2022/10/02 02:03:53;;;;;;;4.23;2.23;;;12.80;99.90;;;;;;5038716;28;20812;-85
2022/10/02 02:06:28;;;;;;;3.00;2.20;;;12.90;99.90;;;;;;5027210;28;20453;-85
2022/10/02 02:09:05;;;;;;;3.67;2.70;;;12.90;99.90;;;;;;5019158;28;20500;-84
2022/10/02 02:11:35;;;;;;;3.20;2.30;;;12.90;99.90;;;;;;5018854;28;20449;-85
2022/10/02 02:14:07;;;;;;;4.63;2.73;;;12.90;99.90;;;;;;5018940;28;20873;-85
2022/10/02 02:16:39;;;;;;;4.30;2.10;;;12.90;99.90;;;;;;5032323;28;20538;-85
2022/10/02 02:19:10;;;;;;;7.23;2.40;;;12.90;99.90;;;;;;5039040;28;20974;-83
2022/10/02 02:21:41;;;;;;;5.13;2.77;;;12.90;99.90;;;;;;5038351;28;20473;-84
2022/10/02 02:24:13;;;;;;;2.93;1.90;;;12.90;99.90;;;;;;5038691;28;20469;-83
2022/10/02 02:26:42;;;;;;;4.70;2.60;;;12.90;99.90;;;;;;5037955;28;20453;-87
2022/10/02 02:29:12;;;;;;;3.70;2.30;;;12.90;99.90;;;;;;5038088;28;20540;-85
2022/10/02 02:31:46;;;;;;;6.20;2.80;;;12.90;99.90;;;;;;5024663;28;20962;-85
2022/10/02 02:34:17;;;;;;;4.83;2.43;;;12.90;99.90;;;;;;5034419;28;20461;-84
2022/10/02 02:36:50;;;;;;;5.13;2.60;;;12.90;99.90;;;;;;5023426;28;20485;-84
2022/10/02 02:39:21;;;;;;;4.40;2.20;;;12.90;99.90;;;;;;5017427;28;20545;-84
2022/10/02 02:41:53;;;;;;;5.10;2.33;;;12.80;99.90;;;;;;5030597;28;20441;-84
2022/10/02 02:44:26;;;;;;;4.63;2.90;;;12.90;99.90;;;;;;5018056;28;21142;-84
2022/10/02 02:47:05;;;;;;;9.57;2.43;;;12.90;99.90;;;;;;5029701;28;20449;-84
2022/10/02 02:49:44;;;;;;;4.93;2.50;;;13.00;99.90;;;;;;5036785;28;20480;-84
2022/10/02 02:52:16;;;;;;;8.20;3.27;;;13.10;99.90;;;;;;5024186;28;20454;-84
2022/10/02 02:54:46;;;;;;;6.57;3.23;;;13.10;99.90;;;;;;5029932;28;20450;-84
2022/10/02 02:57:16;;;;;;;5.20;2.60;;;13.00;99.90;;;;;;5017498;28;20581;-84
2022/10/02 02:59:48;;;;;;;4.97;2.53;;;13.10;99.90;;;;;;5020800;28;20451;-83
2022/10/02 03:02:15;;;;;;;4.07;2.63;;;13.10;99.90;;;;;;5034038;28;20659;-83
2022/10/02 03:04:42;;;;;;;4.90;2.83;;;13.30;99.90;;;;;;5016502;28;20472;-84
2022/10/02 03:07:13;;;;;;;5.13;2.27;;;13.30;99.90;;;;;;5017646;28;20476;-84
2022/10/02 03:09:41;;;;;;;4.57;2.57;;;13.50;99.90;;;;;;5036542;28;20449;-84
2022/10/02 03:12:42;;;;;;;4.70;2.07;;;13.60;99.90;;;;;;5034741;28;20493;-84
2022/10/02 03:16:04;;;;;;;3.07;2.77;;;13.60;99.90;;;;;;5017025;28;20453;-84
2022/10/02 03:18:57;;;;;;;5.07;2.40;;;13.60;99.90;;;;;;5016082;28;20496;-86
2022/10/02 03:21:29;;;;;;;6.30;2.53;;;13.50;99.90;;;;;;5014871;28;20496;-84
2022/10/02 03:24:03;;;;;;;3.80;2.77;;;13.40;99.90;;;;;;5016833;28;20461;-84
2022/10/02 03:26:36;;;;;;;9.97;2.97;;;13.30;99.90;;;;;;5029703;28;20441;-81
2022/10/02 03:29:08;;;;;;;5.57;2.10;;;13.20;99.90;;;;;;5030352;28;20470;-81
2022/10/02 03:31:41;;;;;;;2.80;2.60;;;13.30;99.90;;;;;;5026269;28;20459;-85
2022/10/02 03:34:10;;;;;;;5.10;3.60;;;13.20;99.90;;;;;;5015927;28;21017;-85
2022/10/02 03:36:38;;;;;;;2.47;2.23;;;13.30;99.90;;;;;;4999149;28;20485;-85
2022/10/02 03:39:08;;;;;;;2.37;2.07;;;13.20;99.90;;;;;;5015909;28;20492;-85
2022/10/02 03:41:35;;;;;;;3.63;2.10;;;13.30;99.90;;;;;;5017010;28;20458;-85
2022/10/02 03:44:18;;;;;;;5.47;2.90;;;13.40;99.90;;;;;;5030803;28;20453;-82
2022/10/02 03:47:33;;;;;;;4.50;2.47;;;13.40;99.90;;;;;;5016474;28;20544;-85
2022/10/02 03:50:30;;;;;;;4.70;2.57;;;13.30;99.90;;;;;;5016986;28;20961;-85
2022/10/02 03:53:00;;;;;;;3.37;2.37;;;13.30;99.90;;;;;;5024859;28;20462;-85
2022/10/02 03:55:39;;;;;;;5.03;2.80;;;13.30;99.90;;;;;;5036121;28;20507;-85
2022/10/02 03:58:13;;;;;;;10.80;3.73;;;13.30;99.90;;;;;;5025352;28;20491;-85
2022/10/02 04:00:50;;;;;;;2.67;2.23;;;13.30;99.90;;;;;;4998922;28;20457;-85
2022/10/02 04:03:21;;;;;;;2.50;2.30;;;13.20;99.90;;;;;;5027529;28;20824;-85
2022/10/02 04:05:54;;;;;;;5.10;2.27;;;13.10;99.90;;;;;;5036417;28;20552;-85
2022/10/02 04:08:25;;;;;;;3.90;2.57;;;13.10;99.90;;;;;;5024152;28;20557;-83
2022/10/02 04:10:59;;;;;;;3.90;3.07;;;13.10;99.90;;;;;;5029265;28;20450;-85
2022/10/02 04:13:33;;;;;;;2.93;2.37;;;13.20;99.90;;;;;;5024604;28;20522;-85
2022/10/02 04:16:10;;;;;;;5.63;1.70;;;13.20;99.90;;;;;;5031786;28;20803;-85
2022/10/02 04:18:45;;;;;;;5.80;3.20;;;13.40;99.90;;;;;;5034796;28;20488;-85
2022/10/02 04:21:22;;;;;;;4.10;2.80;;;13.20;99.90;;;;;;5036918;28;20977;-84
2022/10/02 04:23:52;;;;;;;7.73;2.87;;;13.20;99.90;;;;;;5034407;28;20461;-83
2022/10/02 04:26:25;;;;;;;3.40;2.37;;;13.10;99.90;;;;;;5039700;28;20457;-85
2022/10/02 04:29:07;;;;;;;3.30;2.60;;;13.10;99.90;;;;;;5034283;28;20466;-85
2022/10/02 04:31:53;;;;;;;3.50;2.83;;;13.10;99.90;;;;;;5039498;28;20460;-85
2022/10/02 04:37:58;;;;;;;3.80;2.10;;;13.10;99.90;;;;;;5017211;28;20485;-85
2022/10/02 04:47:58;;;;;;;4.83;3.50;;;13.30;99.90;;;;;;4944674;28;20878;-85
2022/10/02 04:50:51;;;;;;;2.60;2.30;;;13.30;99.90;;;;;;4996990;28;20457;-85
2022/10/02 04:57:17;;;;;;;6.23;2.87;;;13.30;99.90;;;;;;5018320;28;20460;-85
2022/10/02 04:59:59;;;;;;;5.33;2.70;;;13.40;99.90;;;;;;5019722;28;20453;-84
2022/10/02 05:02:36;;;;;;;5.60;2.50;;;13.40;99.90;;;;;;5020986;28;20457;-85
2022/10/02 05:05:21;;;;;;;3.17;2.30;;;13.40;99.90;;;;;;5039808;28;20462;-85
2022/10/02 05:08:19;;;;;;;6.47;2.27;;;13.50;99.90;;;;;;5034994;28;20470;-85
2022/10/02 05:11:04;;;;;;;5.37;3.00;;;13.60;99.90;;;;;;5033343;28;20457;-85
2022/10/02 05:13:53;;;;;;;2.97;2.43;;;13.60;99.90;;;;;;5019609;28;20457;-85
2022/10/02 05:16:53;;;;;;;6.23;3.30;;;13.60;99.90;;;;;;5026371;28;20524;-85
2022/10/02 05:19:40;;;;;;;2.80;2.60;;;13.70;99.90;;;;;;5034554;28;20493;-85
2022/10/02 05:22:31;;;;;;;2.33;2.10;;;13.70;99.90;;;;;;5018271;28;20458;-84
2022/10/02 05:25:15;;;;;;;2.67;2.47;;;13.70;99.90;;;;;;5039577;28;20449;-85
2022/10/02 05:28:01;;;;;;;3.77;3.23;;;13.70;99.90;;;;;;5037039;28;20882;-85
2022/10/02 05:30:35;;;;;;;2.97;2.70;;;13.70;99.90;;;;;;5038439;28;20460;-85
2022/10/02 05:33:36;;;;;;;4.63;2.53;;;13.70;99.90;;;;;;5032177;28;20464;-85
2022/10/02 05:36:19;;;;;;;2.20;2.03;;;13.70;99.90;;;;;;5019516;28;20455;-85
2022/10/02 05:39:07;;;;;;;3.30;2.07;;;13.80;99.90;;;;;;5036184;28;20488;-86
2022/10/02 05:41:49;;;;;;;5.50;2.90;;;13.80;99.90;;;;;;5034918;28;20453;-85
2022/10/02 05:44:20;;;;;;;2.83;2.53;;;13.80;99.90;;;;;;5038205;28;20519;-85
2022/10/02 05:46:54;;;;;;;3.50;2.97;;;13.80;99.90;;;;;;5032918;28;20451;-85
2022/10/02 05:49:26;;;;;;;2.53;2.33;;;13.80;99.90;;;;;;5019788;28;20446;-86
2022/10/02 05:51:59;;;;;;;4.47;2.30;;;13.80;99.90;;;;;;5026294;28;20451;-84
2022/10/02 05:54:42;;;;;;;2.80;2.57;;;13.90;99.90;;;;;;5038895;28;20460;-85
2022/10/02 05:57:16;;;;;;;4.43;2.47;;;13.80;99.90;;;;;;5030451;28;20500;-86
2022/10/02 05:59:50;;;;;;;3.80;2.90;;;13.90;99.90;;;;;;5019382;28;20453;-86
2022/10/02 06:02:26;;;;;;;2.93;2.63;;;13.90;99.90;;;;;;5029816;28;20453;-86
2022/10/02 06:05:01;;;;;;;2.87;2.67;;;13.90;99.90;;;;;;5038955;28;20950;-86
2022/10/02 06:07:28;;;;;;;3.17;2.87;;;13.90;99.90;;;;;;5029093;28;20480;-86
2022/10/02 06:10:00;;;;;;;4.57;2.40;;;13.90;99.90;;;;;;5038771;28;20449;-86
2022/10/02 06:12:33;;;;;;;3.20;2.47;;;14.00;99.90;;;;;;5038430;28;20471;-85
2022/10/02 06:15:04;;;;;;;3.73;2.80;;;14.00;99.90;;;;;;5039926;28;20456;-86
2022/10/02 06:17:37;;;;;;;2.97;2.53;;;14.00;99.90;;;;;;5038851;28;20523;-86
2022/10/02 06:20:17;;;;;;;3.10;2.83;;;14.00;99.90;;;;;;5038695;28;21042;-85
2022/10/02 06:22:48;;;;;;;7.40;3.13;;;14.10;99.90;;;;;;5034910;28;20536;-85
2022/10/02 06:25:22;;;;;;;4.27;3.40;;;14.10;99.90;;;;;;5023069;28;20450;-85
2022/10/02 06:27:55;;;;;;;7.40;3.23;;;14.10;99.90;;;;;;5023193;28;20472;-85
2022/10/02 06:30:22;;;;;;;5.80;3.70;;;13.90;99.90;;;;;;5035355;28;20454;-84
2022/10/02 06:32:55;;;;;;;3.63;2.83;;;13.80;99.90;;;;;;5030917;28;20493;-85
2022/10/02 06:35:35;;;;;;;5.53;3.20;;;13.80;99.90;;;;;;5027725;28;20453;-85
2022/10/02 06:38:16;;;;;;;4.97;4.50;;;13.80;99.90;;;;;;5023911;28;20492;-86
2022/10/02 06:40:46;;;;;;;6.10;3.07;;;13.60;99.90;;;;;;5030766;28;20457;-86
2022/10/02 06:43:44;;;;;;;2.80;2.60;;;13.50;99.90;;;;;;5039455;28;21050;-84
2022/10/02 06:46:22;;;;;;;4.90;3.50;;;13.50;99.90;;;;;;5027491;28;20501;-82
2022/10/02 06:48:57;;;;;;;5.73;3.73;;;13.40;99.90;;;;;;5044317;28;20476;-82
2022/10/02 06:51:36;;;;;;;4.63;3.37;;;13.50;99.90;;;;;;5025198;28;20449;-86
2022/10/02 06:54:29;;;;;;;4.43;3.67;;;13.60;99.90;;;;;;5038227;28;20547;-86
2022/10/02 06:57:17;;;;;;;3.70;3.10;;;13.50;99.90;;;;;;5027564;28;20458;-86
2022/10/02 07:00:02;;;;;;;7.40;2.83;;;13.70;99.90;;;;;;5018681;28;20485;-83
2022/10/02 07:02:52;;;;;;;9.90;2.70;;;13.80;99.90;;;;;;5018273;28;20457;-85
2022/10/02 07:05:47;;;;;;;7.10;3.67;;;13.80;99.90;;;;;;5019076;28;20477;-86
2022/10/02 07:08:24;;;;;;;6.97;3.07;;;13.90;99.90;;;;;;5018337;28;20474;-84
2022/10/02 07:10:58;;;;;;;5.53;3.37;;;14.00;99.90;;;;;;5018486;28;20461;-86
2022/10/02 07:13:38;;;;;;;7.33;4.87;;;14.10;99.90;;;;;;5023552;28;20453;-85
2022/10/02 07:16:26;;;;;;;6.47;3.60;;;14.10;99.90;;;;;;5028367;28;20434;-85
2022/10/02 07:19:10;;;;;;;6.00;3.50;;;14.10;99.90;;;;;;5027374;28;20497;-85
2022/10/02 07:21:47;;;;;;;3.97;2.67;;;14.10;99.90;;;;;;5027737;28;20454;-84
2022/10/02 07:24:30;;;;;;;4.93;3.40;;;14.20;99.90;;;;;;5028249;28;20450;-85
2022/10/02 07:27:04;;;;;;;8.90;3.53;;;14.30;99.90;;;;;;5027120;28;20461;-84
2022/10/02 07:29:44;;;;;;;6.20;3.30;;;14.30;99.90;;;;;;5025822;28;20452;-85
2022/10/02 07:32:40;;;;;;;3.50;3.20;;;14.40;99.90;;;;;;5028502;28;20874;-83
2022/10/02 07:35:22;;;;;;;4.93;3.43;;;14.40;99.90;;;;;;5030203;28;20451;-84
2022/10/02 07:38:02;;;;;;;4.43;4.03;;;14.40;99.90;;;;;;5029612;28;20458;-83
2022/10/02 07:40:38;;;;;;;4.00;3.60;;;14.40;99.90;;;;;;5035043;28;20456;-82
2022/10/02 07:43:18;;;;;;;5.60;3.97;;;14.50;99.90;;;;;;5035579;28;20446;-82
2022/10/02 07:46:00;;;;;;;5.00;3.50;;;14.50;99.90;;;;;;5025091;28;20963;-86
2022/10/02 07:49:18;;;;;;;3.60;3.40;;;14.60;99.90;;;;;;5015031;28;20454;-86
2022/10/02 07:51:55;;;;;;;8.60;3.30;;;14.60;99.90;;;;;;5008985;28;20494;-86
2022/10/02 07:54:51;;;;;;;5.03;4.23;;;14.80;99.90;;;;;;5027649;28;20500;-86
2022/10/02 07:57:34;;;;;;;9.23;4.07;;;14.60;99.90;;;;;;5018957;28;21000;-86
2022/10/02 08:00:06;;;;;;;3.67;3.33;;;14.50;99.90;;;;;;5023244;28;20552;-85
2022/10/02 08:02:38;;;;;;;3.73;3.40;;;14.60;99.90;;;;;;5025223;28;20442;-87
2022/10/02 08:05:15;;;;;;;6.03;5.27;;;14.70;99.90;;;;;;5027043;28;20455;-87
2022/10/02 08:07:45;;;;;;;7.07;5.10;;;14.60;99.90;;;;;;5043392;28;20480;-87
2022/10/02 08:10:15;;;;;;;5.30;4.53;;;14.50;99.90;;;;;;5031696;28;20909;-87
2022/10/02 08:12:50;;;;;;;4.13;3.70;;;14.60;99.90;;;;;;5023683;28;20559;-87
2022/10/02 08:15:21;;;;;;;5.77;3.60;;;14.60;99.90;;;;;;5033570;28;20457;-85
2022/10/02 08:17:52;;;;;;;5.80;4.17;;;14.70;99.90;;;;;;5040027;28;20473;-86
2022/10/02 08:20:26;;;;;;;4.27;3.93;;;14.70;99.90;;;;;;5021984;28;20492;-87
2022/10/02 08:22:59;;;;;;;5.90;3.17;;;14.60;99.90;;;;;;5020603;28;20442;-87
2022/10/02 08:25:34;;;;;;;4.43;3.30;;;14.50;99.90;;;;;;5037592;28;20458;-88
2022/10/02 08:28:04;;;;;;;3.93;3.50;;;14.60;99.90;;;;;;5036768;28;20465;-87
2022/10/02 08:30:31;;;;;;;5.30;3.43;;;14.60;99.90;;;;;;5034682;28;20460;-87
2022/10/02 08:32:58;;;;;;;3.90;3.50;;;14.70;99.90;;;;;;5037736;28;20467;-87
2022/10/02 08:35:43;;;;;;;3.27;3.07;;;14.90;99.90;;;;;;5021568;28;20813;-87
2022/10/02 08:38:26;;;;;;;5.43;3.53;;;15.10;99.90;;;;;;5022366;28;20469;-86
2022/10/02 08:41:30;;;;;;;4.87;4.47;;;15.30;99.90;;;;;;5023868;28;20459;-87
2022/10/02 08:44:23;;;;;;;5.23;3.60;;;15.50;99.90;;;;;;5016770;28;20468;-87
2022/10/02 08:47:31;;;;;;;9.87;3.40;;;15.60;99.90;;;;;;5019068;28;20454;-86
2022/10/02 08:50:41;;;;;;;3.40;2.73;;;15.80;99.90;;;;;;5021901;28;20450;-86
2022/10/02 08:53:49;;;;;;;3.27;2.97;;;16.00;99.90;;;;;;5017133;28;20446;-87
2022/10/02 08:56:25;;;;;;;5.07;3.13;;;16.00;99.90;;;;;;5016194;28;20448;-86
2022/10/02 08:59:22;;;;;;;3.87;3.40;;;16.20;99.90;;;;;;5018975;28;20503;-87
2022/10/02 09:02:11;;;;;;;3.90;3.50;;;16.40;99.90;;;;;;5019755;28;20458;-87
2022/10/02 09:05:10;;;;;;;8.20;4.67;;;16.60;99.90;;;;;;5019161;28;20462;-86
2022/10/02 09:08:12;;;;;;;4.80;3.40;;;16.80;99.90;;;;;;5018580;28;20476;-87
2022/10/02 09:11:16;;;;;;;4.37;3.97;;;17.10;99.90;;;;;;5022039;28;20473;-86
2022/10/02 09:14:16;;;;;;;6.27;2.87;;;17.20;99.90;;;;;;5026070;28;20527;-86
2022/10/02 09:17:09;;;;;;;2.17;1.97;;;17.20;99.90;;;;;;5037085;28;20467;-87
2022/10/02 09:19:48;;;;;;;5.90;2.33;;;17.30;99.90;;;;;;5034841;28;20491;-86
2022/10/02 09:22:46;;;;;;;6.97;2.70;;;17.50;99.90;;;;;;5028248;28;20445;-86
2022/10/02 09:25:27;;;;;;;3.37;2.50;;;17.70;99.90;;;;;;5032571;28;20492;-86
2022/10/02 09:28:36;;;;;;;3.27;1.60;;;17.70;99.90;;;;;;5031453;28;21029;-87
2022/10/02 09:32:08;;;;;;;2.23;1.80;;;17.90;99.90;;;;;;5037687;28;20441;-86
2022/10/02 09:35:25;;;;;;;2.83;1.97;;;17.90;99.90;;;;;;5028346;28;20468;-86
2022/10/02 09:38:31;;;;;;;2.93;1.83;;;18.10;99.90;;;;;;5032867;28;20479;-83
2022/10/02 09:41:24;;;;;;;1.67;1.57;;;18.00;99.90;;;;;;5042468;28;20455;-83
2022/10/02 09:44:29;;;;;;;1.07;1.00;;;17.80;99.90;;;;;;5012412;28;20445;-82
2022/10/02 09:47:36;;;;;;;1.53;1.43;;;17.80;99.90;;;;;;5035130;28;20453;-82
2022/10/02 09:50:21;;;;;;;1.17;0.90;;;17.90;99.90;;;;;;5035643;28;20445;-83
2022/10/02 09:53:21;;;;;;;1.03;0.90;;;17.70;99.90;;;;;;5040030;28;20451;-82
2022/10/02 09:56:36;;;;;;;1.70;0.90;;;17.80;99.90;;;;;;5052920;28;20453;-82
2022/10/02 09:59:26;;;;;;;1.70;0.87;;;17.80;99.90;;;;;;5035634;28;20480;-81
2022/10/02 10:02:22;;;;;;;0.60;0.47;;;17.90;99.90;;;;;;5037238;28;20450;-81
2022/10/02 10:05:30;;;;;;;1.33;0.50;;;17.80;99.90;;;;;;5017927;28;20445;-84
2022/10/02 10:15:21;;;;;;;0.43;0.40;;;17.60;99.90;;;;;;5035417;28;20463;-84
2022/10/02 10:18:14;;;;;;;4.17;3.20;;;17.10;99.90;;;;;;5043898;28;20454;-86
2022/10/02 10:21:13;;;;;;;5.10;4.20;;;16.80;99.90;;;;;;5034323;28;20511;-86
2022/10/02 10:24:12;;;;;;;6.00;5.23;;;16.40;99.90;;;;;;5034699;28;20444;-86
2022/10/02 10:27:17;;;;;;;5.07;4.60;;;16.10;99.90;;;;;;5041132;28;20461;-84
2022/10/02 10:30:20;;;;;;;6.83;4.10;;;15.70;99.90;;;;;;5051487;28;20476;-88
2022/10/02 10:33:37;;;;;;;5.20;4.80;;;15.60;99.90;;;;;;5041777;28;20443;-83
2022/10/02 10:39:43;;;;;;;4.00;3.67;;;15.20;99.90;;;;;;5053791;28;20748;-86
2022/10/02 10:43:06;;;;;;;4.97;4.67;;;15.20;99.90;;;;;;5035221;28;20889;-86
2022/10/02 10:45:57;;;;;;;5.33;4.80;;;15.00;99.90;;;;;;4966844;28;20871;-86
2022/10/02 10:48:34;;;;;;;5.93;5.43;;;14.80;99.90;;;;;;5031952;28;20470;-86
2022/10/02 10:51:19;;;;;;;6.43;5.90;;;14.90;99.90;;;;;;5033723;28;20511;-86
2022/10/02 10:54:34;;;;;;;6.07;5.43;;;14.80;99.90;;;;;;5039653;28;20498;-87
2022/10/02 10:57:06;;;;;;;5.10;4.60;;;15.00;99.90;;;;;;5018943;28;20452;-85
2022/10/02 11:00:19;;;;;;;5.07;4.67;;;15.10;99.90;;;;;;5038867;28;20490;-86
2022/10/02 11:14:09;;;;;;;5.67;4.83;;;14.70;99.90;;;;;;4850908;29;20457;-85
2022/10/02 11:21:05;;;;;;;5.30;4.90;;;14.60;99.90;;;;;;4947867;28;20550;-89
2022/10/02 11:23:57;;;;;;;4.87;4.47;;;14.70;99.90;;;;;;4900757;29;20498;-86
2022/10/02 11:26:55;;;;;;;4.37;4.07;;;14.70;99.90;;;;;;4948778;29;20453;-85
2022/10/02 11:29:52;;;;;;;4.00;3.70;;;14.80;99.90;;;;;;5026418;28;20456;-85
2022/10/02 11:32:50;;;;;;;4.10;3.80;;;14.80;99.90;;;;;;5035765;28;20536;-85
2022/10/02 11:35:37;;;;;;;4.40;4.10;;;14.80;99.90;;;;;;5019201;28;20454;-84
2022/10/02 11:38:21;;;;;;;4.07;3.87;;;14.70;99.90;;;;;;5017227;28;20470;-84
2022/10/02 11:40:58;;;;;;;3.83;3.30;;;14.60;99.90;;;;;;5034120;28;20486;-85
2022/10/02 11:43:41;;;;;;;3.10;2.90;;;14.50;99.90;;;;;;5035195;28;20549;-84
2022/10/02 11:46:36;;;;;;;3.23;3.03;;;14.40;99.90;;;;;;5040616;28;20491;-84
2022/10/02 11:49:39;;;;;;;3.13;2.93;;;14.40;99.90;;;;;;5019762;28;20493;-84
2022/10/02 11:52:21;;;;;;;3.50;3.30;;;14.50;99.90;;;;;;5026839;28;20449;-85
2022/10/02 11:54:58;;;;;;;3.07;2.87;;;14.40;99.90;;;;;;5020064;28;20478;-83
2022/10/02 11:57:34;;;;;;;2.90;2.80;;;14.40;99.90;;;;;;5027050;28;20920;-84
2022/10/02 12:00:42;;;;;;;3.23;3.13;;;14.30;99.90;;;;;;5032795;28;20519;-85
2022/10/02 14:04:31;;;;;;;0.70;0.70;;;14.10;99.90;;;;;;4968722;28;20471;-86
2022/10/02 14:14:55;;;;;;;0.60;0.60;;;14.20;99.90;;;;;;4867059;29;20502;-85
2022/10/02 14:35:30;;;;;;;1.27;1.07;;;13.50;99.90;;;;;;4839112;29;20526;-85
2022/10/02 17:08:14;;;;;;;5.00;1.93;;;12.90;99.90;;;;;;4825157;29;20471;-85
2022/10/02 17:11:02;;;;;;;2.57;2.37;;;12.80;99.90;;;;;;4909644;28;20460;-86
2022/10/02 17:13:34;;;;;;;7.43;3.47;;;12.80;99.90;;;;;;4944930;29;20448;-86
2022/10/02 17:16:07;;;;;;;6.70;4.00;;;12.80;99.90;;;;;;4949698;29;20456;-83
2022/10/02 17:18:42;;;;;;;6.73;2.93;;;12.80;99.90;;;;;;4955575;28;20486;-85
2022/10/02 17:21:14;;;;;;;3.30;3.00;;;13.00;99.90;;;;;;4948575;29;20480;-85
2022/10/02 17:23:53;;;;;;;2.40;2.30;;;12.90;99.90;;;;;;4958098;29;20455;-85
2022/10/02 17:26:32;;;;;;;5.40;2.80;;;13.10;99.90;;;;;;4960593;28;20461;-85
2022/10/02 17:29:06;;;;;;;4.23;2.93;;;13.20;99.90;;;;;;4965342;29;20480;-86
2022/10/02 17:31:46;;;;;;;2.90;2.70;;;13.10;99.90;;;;;;4966069;29;20484;-86
2022/10/02 17:34:19;;;;;;;2.83;2.47;;;13.00;99.90;;;;;;4964996;29;20437;-86
2022/10/02 17:36:57;;;;;;;3.10;2.60;;;13.00;99.90;;;;;;4965179;28;20479;-86
2022/10/02 17:39:41;;;;;;;2.33;2.20;;;13.10;99.90;;;;;;4965231;29;20433;-86
2022/10/02 17:42:18;;;;;;;0.20;0.20;;;13.10;99.90;;;;;;4965961;29;20527;-86
2022/10/02 17:44:52;;;;;;;0.20;0.10;;;13.10;99.90;;;;;;4965623;29;20452;-86
2022/10/02 17:47:36;;;;;;;0.20;0.10;;;13.00;99.90;;;;;;4965153;28;20482;-86
2022/10/02 17:50:37;;;;;;;0.87;0.87;;;12.90;99.90;;;;;;4965201;29;20846;-86
2022/10/02 17:56:49;;;;;;;0.20;0.17;;;12.80;99.90;;;;;;4965481;29;20501;-86
2022/10/02 17:59:36;;;;;;;0.20;0.10;;;12.70;99.90;;;;;;4955257;28;20512;-86
2022/10/02 18:02:18;;;;;;;0.20;0.20;;;12.60;99.90;;;;;;4975182;28;20457;-85
2022/10/02 18:05:09;;;;;;;0.20;0.20;;;12.60;99.90;;;;;;4970151;28;20519;-86
2022/10/02 18:07:52;;;;;;;0.20;0.10;;;12.60;99.90;;;;;;4965104;29;20811;-86
2022/10/02 18:10:31;;;;;;;0.20;0.10;;;12.60;99.90;;;;;;4969812;28;20940;-86
2022/10/02 18:13:24;;;;;;;0.20;0.20;;;12.50;99.90;;;;;;4970721;28;20444;-85
2022/10/02 18:16:04;;;;;;;0.20;0.10;;;12.60;99.90;;;;;;4965208;28;20488;-86
2022/10/02 18:18:37;;;;;;;0.20;0.20;;;12.70;99.90;;;;;;4964775;29;20479;-87
2022/10/02 18:21:21;;;;;;;0.20;0.10;;;12.70;99.90;;;;;;4969963;28;20477;-86
2022/10/02 18:24:07;;;;;;;0.20;0.10;;;12.80;99.90;;;;;;4965036;28;20548;-87
2022/10/02 18:26:44;;;;;;;0.20;0.10;;;12.90;99.90;;;;;;4981919;28;20500;-87
2022/10/02 18:29:40;;;;;;;0.20;0.10;;;13.00;99.90;;;;;;4964128;28;20874;-87
2022/10/02 18:32:27;;;;;;;0.20;0.10;;;12.90;99.90;;;;;;4970607;28;20854;-88
2022/10/02 18:35:21;;;;;;;0.20;0.10;;;12.90;99.90;;;;;;4965577;28;20840;-87
2022/10/02 18:38:01;;;;;;;0.20;0.10;;;12.90;99.90;;;;;;4965083;28;20496;-87
2022/10/02 18:40:33;;;;;;;0.20;0.10;;;12.70;99.90;;;;;;4969130;28;20555;-84
2022/10/02 18:43:25;;;;;;;0.20;0.10;;;12.70;99.90;;;;;;4973800;28;20877;-85
2022/10/02 18:46:03;;;;;;;0.20;0.10;;;12.70;99.90;;;;;;4965871;28;20528;-87
2022/10/02 18:49:02;;;;;;;0.20;0.10;;;12.70;99.90;;;;;;4964223;28;20478;-86
2022/10/02 18:52:04;;;;;;;0.20;0.10;;;12.80;99.90;;;;;;4965531;28;20520;-86
2022/10/02 18:54:44;;;;;;;0.20;0.10;;;12.90;99.90;;;;;;4954444;28;20471;-85
2022/10/02 18:57:29;;;;;;;0.20;0.10;;;13.00;99.90;;;;;;4974378;28;20480;-86
2022/10/02 19:00:05;;;;;;;0.20;0.10;;;13.00;99.90;;;;;;4966382;28;20983;-88
2022/10/02 19:02:56;;;;;;;0.20;0.10;;;13.10;99.90;;;;;;4966163;29;20452;-86
2022/10/02 19:05:26;;;;;;;0.20;0.10;;;13.00;99.90;;;;;;4964341;28;20494;-86
2022/10/02 19:08:07;;;;;;;0.20;0.10;;;13.00;99.90;;;;;;4979118;28;20479;-87
2022/10/02 19:10:45;;;;;;;0.20;0.10;;;13.10;99.90;;;;;;4986940;28;20466;-86
2022/10/02 19:13:23;;;;;;;0.20;0.10;;;13.20;99.90;;;;;;4972557;28;20468;-87
2022/10/02 19:15:56;;;;;;;0.20;0.10;;;13.20;99.90;;;;;;4983093;28;20462;-86
2022/10/02 19:18:31;;;;;;;0.20;0.20;;;13.20;99.90;;;;;;4980989;28;20482;-86
2022/10/02 19:21:05;;;;;;;0.20;0.20;;;13.30;99.90;;;;;;4982410;28;20531;-85
2022/10/02 19:23:37;;;;;;;0.20;0.20;;;13.30;99.90;;;;;;4971999;28;20479;-84
2022/10/02 19:26:15;;;;;;;0.20;0.10;;;13.30;99.90;;;;;;4972669;28;20487;-84
2022/10/02 19:28:46;;;;;;;0.20;0.10;;;13.10;99.90;;;;;;4976594;28;20534;-84
2022/10/02 19:31:19;;;;;;;0.20;0.20;;;12.90;99.90;;;;;;4973405;28;20954;-83
2022/10/02 19:33:50;;;;;;;0.20;0.10;;;13.00;99.90;;;;;;4975091;28;20457;-83
2022/10/02 19:36:20;;;;;;;0.20;0.20;;;13.20;99.90;;;;;;4970620;28;20519;-83
2022/10/02 19:38:53;;;;;;;0.20;0.10;;;13.20;99.90;;;;;;4977007;28;20490;-82
2022/10/02 19:41:21;;;;;;;0.20;0.10;;;13.20;99.90;;;;;;4967591;28;20488;-83
2022/10/02 19:43:53;;;;;;;0.20;0.13;;;13.30;99.90;;;;;;4986272;28;20480;-84